Weather at Ile D'Yeu Port Joinville Heliport

Public forecast

Using degrees Celsius for public forecast. Weather courtesy of forecast.io.

Closest aviation weather report (METAR) to Ile D'Yeu Port Joinville Heliport

Closest report is Saint-Nazaire-Montoir Airport, 35.9 nm (66.4 km) NNE. Retrieved 2021/11/27 00:00 UTC (25 minutes ago):

LFRZ 270000Z AUTO 34008KT 300V020 9999 -RA FEW026 SCT032 BKN039 06/03 Q0997 TEMPO 4000 SHRA BKN030CB

Closest aviation forecast (TAF) to Ile D'Yeu Port Joinville Heliport

Closest forecast is Saint-Nazaire-Montoir Airport, 35.9 nm (66.4 km) NNE. Retrieved 2021-11-27 00:42 UTC (0 seconds ago):

TAF LFRZ 262300Z 2700/2724 30013KT CAVOK TEMPO 2700/2720 4000 SHRA BKN030CB TEMPO 2706/2724 31015G25KT PROB40 TEMPO 2710/2717 32018G32KT